createdAt,value
2022-09-11T00:01:29.561Z,13.53
2022-09-11T00:06:34.347Z,13.30
2022-09-11T00:11:41.899Z,13.38
2022-09-11T00:16:49.246Z,13.28
2022-09-11T00:21:56.295Z,13.35
2022-09-11T00:27:01.361Z,13.34
2022-09-11T00:32:07.509Z,13.17
2022-09-11T00:37:12.568Z,13.26
2022-09-11T00:42:16.708Z,13.17
2022-09-11T00:47:22.170Z,12.85
2022-09-11T00:52:30.392Z,12.95
2022-09-11T00:57:41.575Z,13.05
2022-09-11T01:02:50.963Z,13.02
2022-09-11T01:07:57.989Z,13.16
2022-09-11T01:13:11.700Z,13.18
2022-09-11T01:18:27.292Z,12.91
2022-09-11T01:23:51.348Z,12.60
2022-09-11T01:29:03.455Z,12.83
2022-09-11T01:34:18.075Z,12.98
2022-09-11T01:39:26.906Z,12.94
2022-09-11T01:44:38.946Z,13.00
2022-09-11T01:49:51.697Z,13.13
2022-09-11T01:55:05.744Z,12.96
2022-09-11T02:00:13.889Z,12.88
2022-09-11T02:05:25.423Z,12.83
2022-09-11T02:10:38.299Z,12.73
2022-09-11T02:15:48.798Z,12.79
2022-09-11T02:20:56.118Z,12.85
2022-09-11T02:26:00.697Z,12.82
2022-09-11T02:31:08.616Z,12.79
2022-09-11T02:36:35.834Z,12.85
2022-09-11T02:41:53.458Z,12.91
2022-09-11T02:47:12.604Z,13.11
2022-09-11T02:52:30.331Z,13.02
2022-09-11T02:57:44.274Z,12.72
2022-09-11T03:02:51.436Z,12.95
2022-09-11T03:07:56.217Z,12.97
2022-09-11T03:13:00.630Z,12.76
2022-09-11T03:18:10.872Z,12.82
2022-09-11T03:23:15.569Z,12.75
2022-09-11T03:28:20.276Z,12.83
2022-09-11T03:33:28.400Z,12.84
2022-09-11T03:38:33.652Z,12.75
2022-09-11T03:43:39.356Z,12.82
2022-09-11T03:48:46.720Z,12.70
2022-09-11T03:53:51.422Z,12.60
2022-09-11T03:58:59.069Z,12.67
2022-09-11T04:04:06.451Z,12.68
2022-09-11T04:09:18.171Z,12.84
2022-09-11T04:14:25.224Z,12.90
2022-09-11T04:19:34.807Z,12.96
2022-09-11T04:24:39.332Z,13.00
2022-09-11T04:29:43.804Z,13.10
2022-09-11T04:34:50.128Z,13.25
2022-09-11T04:39:55.387Z,13.14
2022-09-11T04:44:59.900Z,13.33
2022-09-11T04:50:06.137Z,13.02
2022-09-11T04:55:11.837Z,12.84
2022-09-11T05:00:18.084Z,12.88
2022-09-11T05:05:25.696Z,13.04
2022-09-11T05:10:33.668Z,13.09
2022-09-11T05:15:38.087Z,13.29
2022-09-11T05:20:44.607Z,13.14
2022-09-11T05:25:49.937Z,13.17
2022-09-11T05:30:54.992Z,13.24
2022-09-11T05:36:06.900Z,13.09
2022-09-11T05:41:13.131Z,12.91
2022-09-11T05:46:19.844Z,13.13
2022-09-11T05:51:30.824Z,13.45
2022-09-11T05:56:37.363Z,13.43
2022-09-11T06:01:48.279Z,13.45
2022-09-11T06:07:00.859Z,13.69
2022-09-11T06:12:07.156Z,13.63
2022-09-11T06:17:12.496Z,13.62
2022-09-11T06:22:19.797Z,13.68
2022-09-11T06:27:25.388Z,13.70
2022-09-11T06:32:31.022Z,13.60
2022-09-11T06:37:38.104Z,13.28
2022-09-11T06:42:44.605Z,13.04
2022-09-11T06:47:51.924Z,12.98
2022-09-11T06:52:58.509Z,12.91
2022-09-11T06:58:06.970Z,12.93
2022-09-11T07:03:13.302Z,12.87
2022-09-11T07:08:24.733Z,12.95
2022-09-11T07:13:29.648Z,12.91
2022-09-11T07:18:36.573Z,13.07
2022-09-11T07:23:50.707Z,13.20
2022-09-11T07:28:57.881Z,13.30
2022-09-11T07:34:03.800Z,13.20
2022-09-11T07:39:12.169Z,13.16
2022-09-11T07:44:38.181Z,13.19
2022-09-11T07:49:42.664Z,13.55
2022-09-11T07:54:50.740Z,13.56
2022-09-11T07:59:56.896Z,13.75
2022-09-11T08:05:04.010Z,14.05
2022-09-11T08:10:26.726Z,14.08
2022-09-11T08:15:33.281Z,14.37
2022-09-11T08:20:39.297Z,14.43
2022-09-11T08:25:45.919Z,14.71
2022-09-11T08:30:52.262Z,15.24
2022-09-11T08:35:59.390Z,15.70
2022-09-11T08:41:15.388Z,15.64
2022-09-11T08:46:25.584Z,15.99
2022-09-11T08:51:32.326Z,15.70
2022-09-11T08:56:40.763Z,15.83
2022-09-11T09:01:55.522Z,15.68
2022-09-11T09:07:12.400Z,15.58
2022-09-11T09:12:28.484Z,16.07
2022-09-11T09:17:38.804Z,16.56
2022-09-11T09:22:49.536Z,15.97
2022-09-11T09:28:03.456Z,15.29
2022-09-11T09:33:25.715Z,15.13
2022-09-11T09:38:32.633Z,15.35
2022-09-11T09:43:50.825Z,15.68
2022-09-11T09:48:57.036Z,15.60
2022-09-11T09:54:03.595Z,15.86
2022-09-11T09:59:19.694Z,16.41
2022-09-11T10:04:27.275Z,16.87
2022-09-11T10:09:32.417Z,16.44
2022-09-11T10:14:52.905Z,16.61
2022-09-11T10:20:13.367Z,16.43
2022-09-11T10:25:20.227Z,16.60
2022-09-11T10:30:32.359Z,16.53
2022-09-11T10:35:38.222Z,16.23
2022-09-11T10:40:47.491Z,16.49
2022-09-11T10:46:06.729Z,17.02
2022-09-11T10:51:14.132Z,17.77
2022-09-11T10:56:19.551Z,18.62
2022-09-11T11:01:26.446Z,19.44
2022-09-11T11:06:49.512Z,18.72
2022-09-11T11:12:19.415Z,18.98
2022-09-11T11:17:34.138Z,19.48
2022-09-11T11:23:00.222Z,18.90
2022-09-11T11:28:23.930Z,19.30
2022-09-11T11:34:04.556Z,19.85
2022-09-11T11:39:19.254Z,20.12
2022-09-11T11:44:33.911Z,20.15
2022-09-11T11:49:53.679Z,19.30
2022-09-11T11:55:01.681Z,19.07
2022-09-11T12:00:12.830Z,18.96
2022-09-11T12:05:24.832Z,18.71
2022-09-11T12:10:31.738Z,18.50
2022-09-11T12:15:37.140Z,18.35
2022-09-11T12:20:45.254Z,19.01
2022-09-11T12:25:53.984Z,19.28
2022-09-11T12:31:02.531Z,19.65
2022-09-11T12:36:11.657Z,19.64
2022-09-11T12:41:17.739Z,20.94
2022-09-11T12:47:01.815Z,20.23
2022-09-11T12:52:20.514Z,19.99
2022-09-11T12:57:31.216Z,19.76
2022-09-11T13:02:39.535Z,19.21
2022-09-11T13:07:51.644Z,19.51
2022-09-11T13:12:57.604Z,19.59
2022-09-11T13:18:01.881Z,19.05
2022-09-11T13:23:19.500Z,19.04
2022-09-11T13:28:27.316Z,18.75
2022-09-11T13:33:33.968Z,18.52
2022-09-11T13:38:39.966Z,18.65
2022-09-11T13:43:47.774Z,18.80
2022-09-11T13:48:58.211Z,18.20
2022-09-11T13:54:11.567Z,17.84
2022-09-11T13:59:50.657Z,18.70
2022-09-11T14:05:02.515Z,19.76
2022-09-11T14:10:23.048Z,19.04
2022-09-11T14:15:38.423Z,18.62
2022-09-11T14:20:46.760Z,18.17
2022-09-11T14:26:20.142Z,17.69
2022-09-11T14:31:35.784Z,17.15
2022-09-11T14:36:44.681Z,16.68
2022-09-11T14:41:51.219Z,15.56
2022-09-11T14:46:57.863Z,15.08
2022-09-11T14:52:03.533Z,14.85
2022-09-11T14:57:18.389Z,14.73
2022-09-11T15:02:27.235Z,14.77
2022-09-11T15:07:31.944Z,14.85
2022-09-11T15:12:37.980Z,14.89
2022-09-11T15:17:42.716Z,14.94
2022-09-11T15:22:47.395Z,14.96
2022-09-11T15:27:54.674Z,14.80
2022-09-11T15:32:59.770Z,14.67
2022-09-11T15:38:05.945Z,14.56
2022-09-11T15:43:11.765Z,14.57
2022-09-11T15:48:17.584Z,14.51
2022-09-11T15:53:21.772Z,14.70
2022-09-11T15:58:28.001Z,14.90
2022-09-11T16:03:33.671Z,14.85
2022-09-11T16:08:40.036Z,15.03
2022-09-11T16:13:50.234Z,14.99
2022-09-11T16:18:55.318Z,14.95
2022-09-11T16:24:02.148Z,15.08
2022-09-11T16:29:12.362Z,14.84
2022-09-11T16:34:18.047Z,14.81
2022-09-11T16:39:22.174Z,14.75
2022-09-11T16:44:29.553Z,14.74
2022-09-11T16:49:50.373Z,14.59
2022-09-11T16:54:59.069Z,14.46
2022-09-11T17:00:07.847Z,14.26
2022-09-11T17:05:14.573Z,14.39
2022-09-11T17:10:19.202Z,14.39
2022-09-11T17:15:25.745Z,14.33
2022-09-11T17:20:30.060Z,14.40
2022-09-11T17:25:36.067Z,14.29
2022-09-11T17:30:41.769Z,13.93
2022-09-11T17:35:47.343Z,13.92
2022-09-11T17:40:57.681Z,14.16
2022-09-11T17:46:06.003Z,14.08
2022-09-11T17:51:12.571Z,13.83
2022-09-11T17:56:19.447Z,13.80
2022-09-11T18:01:26.903Z,13.71
2022-09-11T18:06:35.475Z,13.82
2022-09-11T18:11:40.191Z,13.77
2022-09-11T18:16:48.327Z,13.61
2022-09-11T18:21:53.599Z,13.61
2022-09-11T18:27:00.936Z,13.65
2022-09-11T18:32:09.872Z,13.76
2022-09-11T18:37:17.577Z,13.82
2022-09-11T18:42:22.446Z,13.86
2022-09-11T18:47:30.970Z,13.86
2022-09-11T18:52:36.867Z,13.87
2022-09-11T18:57:44.821Z,14.06
2022-09-11T19:02:57.403Z,14.13
2022-09-11T19:08:04.529Z,14.13
2022-09-11T19:13:08.892Z,14.02
2022-09-11T19:18:15.281Z,13.87
2022-09-11T19:23:19.398Z,13.98
2022-09-11T19:28:23.465Z,14.07
2022-09-11T19:33:31.254Z,14.05
2022-09-11T19:38:37.792Z,13.83
2022-09-11T19:43:45.794Z,13.96
2022-09-11T19:48:53.570Z,13.81
2022-09-11T19:54:00.717Z,13.65
2022-09-11T19:59:06.448Z,13.48
2022-09-11T20:04:14.134Z,13.29
2022-09-11T20:09:34.173Z,13.19
2022-09-11T20:14:42.660Z,13.12
2022-09-11T20:19:48.790Z,12.98
2022-09-11T20:24:53.330Z,12.82
2022-09-11T20:29:57.563Z,12.91
2022-09-11T20:35:03.766Z,12.73
2022-09-11T20:40:11.756Z,12.66
2022-09-11T20:45:17.025Z,12.56
2022-09-11T20:50:22.783Z,12.71
2022-09-11T20:55:27.646Z,12.69
2022-09-11T21:00:32.697Z,12.60
2022-09-11T21:05:38.991Z,12.62
2022-09-11T21:10:43.308Z,12.73
2022-09-11T21:15:49.399Z,12.89
2022-09-11T21:20:58.322Z,12.92
2022-09-11T21:26:03.782Z,12.90
2022-09-11T21:31:09.621Z,12.83
2022-09-11T21:36:16.076Z,12.68
2022-09-11T21:41:20.807Z,12.57
2022-09-11T21:46:26.122Z,12.44
2022-09-11T21:51:32.118Z,12.19
2022-09-11T21:56:36.430Z,12.30
2022-09-11T22:01:41.211Z,12.27
2022-09-11T22:06:47.782Z,12.20
2022-09-11T22:11:55.742Z,11.97
2022-09-11T22:17:04.025Z,11.95
2022-09-11T22:22:10.442Z,11.93
2022-09-11T22:27:14.769Z,11.83
2022-09-11T22:32:19.064Z,11.98
2022-09-11T22:37:24.979Z,12.09
2022-09-11T22:42:31.442Z,12.27
2022-09-11T22:47:36.661Z,12.39
2022-09-11T22:52:43.290Z,12.45
2022-09-11T22:57:47.583Z,12.34
2022-09-11T23:02:52.128Z,12.10
2022-09-11T23:07:57.930Z,12.04
2022-09-11T23:13:02.969Z,11.99
2022-09-11T23:18:07.607Z,11.93
2022-09-11T23:23:13.812Z,11.77
2022-09-11T23:28:18.119Z,11.73
2022-09-11T23:33:23.192Z,11.73
2022-09-11T23:38:29.332Z,11.60
2022-09-11T23:43:33.836Z,11.65
2022-09-11T23:48:38.534Z,11.64
2022-09-11T23:53:46.228Z,11.54
2022-09-11T23:58:50.976Z,11.66
